logo
Rechercher aéroport 
image banner adimage banner adimage banner ad
image banner ad

EI0001 - Adare Manor

Situé à Limerick, Ireland

ICAO - , IATA -

Données fournies par Airmate  

Information générale

Coordonnées: N52°33'41" W8°46'56"
Élévation : 22 feet MSL.
Variation magnétique : -2° East
Voir autres Aéroports à County Limerick

Données opérationnelles

Special qualification required
Heure actuelle UTC:
Heure actuelle locale:
Météo à : EINN - Shannon ( 18 km )
METAR: EINN 130300Z VRB03KT 9999 FEW036 SCT045 BKN060 12/11 Q1018 NOSIG
TAF: TAF EINN 122300Z 1300/1324 33007KT 9999 SCT020 BKN040 TEMPO 1303/1311 -RA BKN012 PROB30 TEMPO 1305/1310 BKN008 PROB30 TEMPO 1311/1315 BKN012
Voir NOTAMs / SUP AIP / TFR affectant cet aéroport [VIEW]
Fréquences de communication: [VIEW]

Pistes:

Coordonnées de l'aéroport

Vue satellite de EI0001